createdAt,value
2018-05-18T00:00:40.112Z,0.00
2018-05-18T00:01:40.113Z,0.00
2018-05-18T00:02:40.687Z,0.00
2018-05-18T00:03:40.128Z,0.00
2018-05-18T00:04:40.116Z,0.00
2018-05-18T00:05:40.108Z,0.00
2018-05-18T00:06:40.110Z,0.00
2018-05-18T00:07:40.120Z,0.00
2018-05-18T00:08:40.107Z,0.00
2018-05-18T00:09:40.135Z,0.00
2018-05-18T00:10:40.103Z,0.00
2018-05-18T00:11:40.107Z,0.00
2018-05-18T00:12:40.103Z,0.00
2018-05-18T00:13:40.102Z,0.00
2018-05-18T00:14:40.102Z,0.00
2018-05-18T00:15:40.099Z,0.00
2018-05-18T00:16:40.100Z,0.00
2018-05-18T00:17:40.099Z,0.00
2018-05-18T00:18:40.102Z,0.00
2018-05-18T00:19:40.102Z,0.00
2018-05-18T00:20:40.098Z,0.00
2018-05-18T00:21:40.096Z,0.00
2018-05-18T00:22:40.096Z,0.00
2018-05-18T00:23:40.095Z,0.00
2018-05-18T00:24:40.091Z,0.00
2018-05-18T00:25:40.094Z,0.00
2018-05-18T00:26:40.121Z,0.00
2018-05-18T00:27:40.200Z,0.00
2018-05-18T00:28:40.141Z,0.00
2018-05-18T00:29:40.092Z,0.00
2018-05-18T00:30:40.089Z,0.00
2018-05-18T00:31:40.092Z,0.00
2018-05-18T00:32:40.090Z,0.00
2018-05-18T00:33:40.084Z,0.00
2018-05-18T00:34:40.122Z,0.00
2018-05-18T00:35:40.094Z,0.00
2018-05-18T00:36:40.117Z,0.00
2018-05-18T00:37:40.091Z,0.00
2018-05-18T00:38:40.082Z,0.00
2018-05-18T00:39:40.081Z,0.00
2018-05-18T00:40:40.086Z,0.00
2018-05-18T00:41:40.087Z,0.00
2018-05-18T00:42:40.081Z,0.00
2018-05-18T00:43:40.079Z,0.00
2018-05-18T00:44:40.084Z,0.00
2018-05-18T00:45:40.077Z,0.00
2018-05-18T00:46:40.077Z,0.00
2018-05-18T00:47:40.074Z,0.00
2018-05-18T00:48:40.075Z,0.00
2018-05-18T00:49:40.074Z,0.00
2018-05-18T00:50:40.076Z,0.00
2018-05-18T00:51:40.072Z,0.00
2018-05-18T00:52:40.104Z,0.00
2018-05-18T00:53:40.078Z,0.00
2018-05-18T00:54:40.070Z,0.00
2018-05-18T00:55:40.072Z,0.00
2018-05-18T00:56:40.068Z,0.00
2018-05-18T00:57:40.068Z,0.00
2018-05-18T00:58:40.067Z,0.00
2018-05-18T00:59:40.067Z,0.00
2018-05-18T01:00:40.076Z,0.00
2018-05-18T01:01:40.063Z,0.00
2018-05-18T01:02:40.063Z,0.00
2018-05-18T01:03:40.072Z,0.00
2018-05-18T01:04:40.061Z,0.00
2018-05-18T01:05:40.090Z,0.00
2018-05-18T01:06:40.062Z,0.00
2018-05-18T01:07:40.061Z,0.00
2018-05-18T01:08:40.059Z,0.00
2018-05-18T01:09:40.057Z,0.00
2018-05-18T01:10:40.056Z,0.00
2018-05-18T01:11:40.059Z,0.00
2018-05-18T01:12:40.056Z,0.00
2018-05-18T01:13:40.055Z,0.00
2018-05-18T01:14:40.077Z,0.00
2018-05-18T01:15:40.056Z,0.00
2018-05-18T01:16:40.127Z,0.00
2018-05-18T01:17:40.051Z,0.00
2018-05-18T01:18:40.052Z,0.00
2018-05-18T01:19:40.050Z,0.00
2018-05-18T01:20:40.047Z,0.00
2018-05-18T01:21:40.047Z,0.00
2018-05-18T01:22:40.046Z,0.00
2018-05-18T01:23:40.049Z,0.00
2018-05-18T01:24:40.044Z,0.00
2018-05-18T01:25:40.045Z,0.00
2018-05-18T01:26:40.042Z,0.00
2018-05-18T01:27:40.052Z,0.00
2018-05-18T01:28:40.042Z,0.00
2018-05-18T01:29:40.040Z,0.00
2018-05-18T01:30:40.741Z,0.00
2018-05-18T01:31:40.039Z,0.00
2018-05-18T01:32:40.040Z,0.00
2018-05-18T01:33:40.040Z,0.00
2018-05-18T01:34:40.036Z,0.00
2018-05-18T01:35:40.038Z,0.00
2018-05-18T01:36:40.055Z,0.00
2018-05-18T01:37:40.699Z,0.00
2018-05-18T01:38:40.033Z,0.00
2018-05-18T01:39:40.033Z,0.00
2018-05-18T01:40:40.050Z,0.00
2018-05-18T01:41:40.031Z,0.00
2018-05-18T01:42:40.030Z,0.00
2018-05-18T01:43:40.059Z,0.00
2018-05-18T01:44:40.029Z,0.00
2018-05-18T01:45:40.030Z,0.00
2018-05-18T01:46:40.032Z,0.00
2018-05-18T01:47:40.063Z,0.00
2018-05-18T01:48:40.028Z,0.00
2018-05-18T01:49:40.025Z,0.00
2018-05-18T01:50:40.022Z,0.00
2018-05-18T01:51:40.023Z,0.00
2018-05-18T01:52:40.021Z,0.00
2018-05-18T01:53:40.022Z,0.00
2018-05-18T01:54:40.044Z,0.00
2018-05-18T01:55:40.020Z,0.00
2018-05-18T01:56:40.025Z,0.00
2018-05-18T01:57:40.069Z,0.00
2018-05-18T01:58:40.017Z,0.00
2018-05-18T01:59:40.016Z,0.00
2018-05-18T02:00:40.014Z,0.00
2018-05-18T02:01:40.018Z,0.00
2018-05-18T02:02:40.016Z,0.00
2018-05-18T02:03:40.013Z,0.00
2018-05-18T02:04:40.012Z,0.00
2018-05-18T02:05:40.041Z,0.00
2018-05-18T02:06:40.010Z,0.00
2018-05-18T02:07:40.008Z,0.00
2018-05-18T02:08:40.007Z,0.00
2018-05-18T02:09:40.042Z,0.00
2018-05-18T02:10:40.005Z,0.00
2018-05-18T02:11:40.006Z,0.00
2018-05-18T02:12:40.003Z,0.00
2018-05-18T02:13:40.002Z,0.00
2018-05-18T02:14:40.001Z,0.00
2018-05-18T02:15:40.005Z,0.00
2018-05-18T02:16:40.010Z,0.00
2018-05-18T02:17:40.023Z,0.00
2018-05-18T02:18:40.002Z,0.00
2018-05-18T02:19:40.000Z,0.00
2018-05-18T02:20:40.000Z,0.00
2018-05-18T02:21:39.994Z,0.00
2018-05-18T02:22:39.994Z,0.00
2018-05-18T02:23:39.999Z,0.00
2018-05-18T02:24:39.992Z,0.00
2018-05-18T02:25:39.995Z,0.00
2018-05-18T02:26:40.016Z,0.00
2018-05-18T02:27:40.015Z,0.00
2018-05-18T02:28:39.991Z,0.00
2018-05-18T02:29:39.987Z,0.00
2018-05-18T02:30:39.987Z,0.00
2018-05-18T02:31:40.029Z,0.00
2018-05-18T02:32:40.018Z,0.00
2018-05-18T02:33:40.018Z,0.00
2018-05-18T02:34:39.985Z,0.00
2018-05-18T02:35:39.984Z,0.00
2018-05-18T02:36:39.980Z,0.00
2018-05-18T02:37:39.985Z,0.00
2018-05-18T02:38:39.992Z,0.00
2018-05-18T02:39:39.981Z,0.00
2018-05-18T02:40:39.980Z,0.00
2018-05-18T02:41:39.980Z,0.00
2018-05-18T02:42:39.978Z,0.00
2018-05-18T02:43:39.978Z,0.00
2018-05-18T02:44:40.006Z,0.00
2018-05-18T02:45:40.015Z,0.00
2018-05-18T02:46:39.976Z,0.00
2018-05-18T02:47:39.973Z,0.00
2018-05-18T02:48:40.041Z,0.00
2018-05-18T02:49:40.004Z,0.00
2018-05-18T02:50:39.976Z,0.00
2018-05-18T02:51:39.973Z,0.00
2018-05-18T02:52:39.977Z,0.00
2018-05-18T02:53:39.970Z,0.00
2018-05-18T02:54:40.055Z,0.00
2018-05-18T02:55:39.968Z,0.00
2018-05-18T02:56:39.963Z,0.00
2018-05-18T02:57:39.962Z,0.00
2018-05-18T02:58:39.964Z,0.00
2018-05-18T02:59:39.968Z,0.00
2018-05-18T03:00:39.957Z,0.00
2018-05-18T03:01:39.960Z,0.00
2018-05-18T03:02:39.960Z,0.00
2018-05-18T03:03:39.956Z,0.00
2018-05-18T03:04:39.954Z,0.00
2018-05-18T03:05:39.955Z,0.00
2018-05-18T03:06:39.952Z,0.00
2018-05-18T03:07:39.951Z,0.00
2018-05-18T03:08:39.952Z,0.00
2018-05-18T03:09:39.950Z,0.00
2018-05-18T03:10:39.954Z,0.00
2018-05-18T03:11:39.960Z,0.00
2018-05-18T03:12:39.947Z,0.00
2018-05-18T03:13:39.946Z,0.00
2018-05-18T03:14:39.947Z,0.00
2018-05-18T03:15:39.955Z,0.00
2018-05-18T03:16:39.944Z,0.00
2018-05-18T03:17:39.949Z,0.00
2018-05-18T03:18:39.965Z,0.00
2018-05-18T03:19:39.979Z,0.00
2018-05-18T03:20:39.975Z,0.00
2018-05-18T03:21:39.956Z,0.00
2018-05-18T03:22:39.966Z,0.00
2018-05-18T03:23:39.941Z,0.00
2018-05-18T03:24:39.960Z,0.00
2018-05-18T03:25:39.960Z,0.00
2018-05-18T03:26:39.933Z,0.00
2018-05-18T03:27:39.932Z,0.00
2018-05-18T03:28:39.937Z,0.00
2018-05-18T03:29:39.933Z,0.00
2018-05-18T03:30:39.937Z,0.00
2018-05-18T03:31:39.937Z,0.00
2018-05-18T03:32:39.949Z,0.00
2018-05-18T03:33:39.927Z,0.00
2018-05-18T03:34:39.926Z,0.00
2018-05-18T03:35:39.924Z,0.00
2018-05-18T03:36:39.923Z,0.00
2018-05-18T03:37:39.922Z,0.00
2018-05-18T03:38:39.925Z,0.00
2018-05-18T03:39:39.923Z,0.00
2018-05-18T03:40:39.921Z,0.00
2018-05-18T03:41:39.919Z,0.00
2018-05-18T03:42:39.917Z,0.00
2018-05-18T03:43:39.919Z,0.00
2018-05-18T03:44:39.915Z,0.00
2018-05-18T03:45:39.921Z,0.00
2018-05-18T03:46:39.918Z,0.00
2018-05-18T03:47:39.912Z,0.00
2018-05-18T03:48:39.912Z,0.00
2018-05-18T03:49:39.938Z,0.00
2018-05-18T03:50:39.928Z,0.00
2018-05-18T03:51:39.925Z,0.00
2018-05-18T03:52:39.909Z,0.00
2018-05-18T03:53:39.908Z,0.00
2018-05-18T03:54:39.907Z,0.00
2018-05-18T03:55:39.908Z,0.00
2018-05-18T03:56:39.907Z,0.00
2018-05-18T03:57:39.904Z,0.00
2018-05-18T03:58:39.909Z,0.00
2018-05-18T03:59:39.911Z,0.00
2018-05-18T04:00:39.902Z,0.00
2018-05-18T04:01:39.900Z,0.00
2018-05-18T04:02:39.898Z,0.00
2018-05-18T04:03:39.897Z,0.00
2018-05-18T04:04:39.895Z,0.00
2018-05-18T04:05:39.897Z,0.00
2018-05-18T04:06:39.896Z,0.00
2018-05-18T04:07:39.894Z,0.00
2018-05-18T04:08:39.895Z,0.00
2018-05-18T04:09:39.892Z,0.00
2018-05-18T04:10:39.890Z,0.00
2018-05-18T04:11:39.890Z,0.00
2018-05-18T04:12:39.886Z,0.00
2018-05-18T04:13:39.887Z,0.00
2018-05-18T04:14:39.891Z,0.00
2018-05-18T04:15:39.888Z,0.00
2018-05-18T04:16:39.885Z,0.00
2018-05-18T04:17:39.887Z,0.00
2018-05-18T04:18:39.881Z,0.00
2018-05-18T04:19:39.881Z,0.00
2018-05-18T04:20:39.879Z,0.00
2018-05-18T04:21:39.877Z,0.00
2018-05-18T04:22:39.876Z,0.00
2018-05-18T04:23:39.878Z,0.00
2018-05-18T04:24:39.884Z,0.00
2018-05-18T04:25:39.888Z,0.00
2018-05-18T04:26:39.882Z,0.00
2018-05-18T04:27:39.873Z,0.00
2018-05-18T04:28:39.870Z,0.00
2018-05-18T04:29:39.874Z,0.00
2018-05-18T04:30:39.870Z,0.00
2018-05-18T04:31:39.887Z,0.00
2018-05-18T04:32:39.868Z,0.00
2018-05-18T04:33:39.882Z,0.00
2018-05-18T04:34:39.869Z,0.00
2018-05-18T04:35:39.875Z,5.63
2018-05-18T04:36:39.862Z,5.63
2018-05-18T04:37:39.882Z,5.63
2018-05-18T04:38:39.887Z,5.63
2018-05-18T04:39:39.887Z,5.63
2018-05-18T04:40:39.859Z,5.63
2018-05-18T04:41:39.872Z,5.63
2018-05-18T04:42:39.859Z,5.63
2018-05-18T04:43:39.856Z,5.63
2018-05-18T04:44:39.856Z,5.63
2018-05-18T04:45:39.908Z,5.63
2018-05-18T04:46:39.926Z,5.63
2018-05-18T04:47:39.934Z,5.63
2018-05-18T04:48:39.907Z,5.63
2018-05-18T04:49:39.904Z,5.63
2018-05-18T04:50:39.873Z,5.63
2018-05-18T04:51:39.849Z,5.63
2018-05-18T04:52:39.914Z,5.63
2018-05-18T04:53:39.957Z,5.63
2018-05-18T04:54:39.903Z,5.63
2018-05-18T04:55:39.850Z,5.63
2018-05-18T04:56:39.944Z,5.63
2018-05-18T04:57:39.894Z,5.63
2018-05-18T04:58:39.900Z,5.63
2018-05-18T04:59:39.883Z,5.63
2018-05-18T05:00:39.895Z,5.63
2018-05-18T05:01:39.957Z,5.63
2018-05-18T05:02:39.863Z,5.63
2018-05-18T05:03:52.680Z,5.63
2018-05-18T05:05:37.425Z,5.63
2018-05-18T05:06:37.322Z,5.63
2018-05-18T05:07:37.363Z,5.63
2018-05-18T05:08:38.763Z,5.63
2018-05-18T05:09:37.349Z,5.63
2018-05-18T05:10:37.449Z,5.63
2018-05-18T05:13:11.466Z,5.63
2018-05-18T05:14:11.398Z,5.63
2018-05-18T05:16:10.952Z,5.63
2018-05-18T05:17:10.796Z,11.25
2018-05-18T05:18:10.714Z,11.25
2018-05-18T05:19:10.691Z,11.25
2018-05-18T05:20:10.722Z,11.25
2018-05-18T05:21:10.719Z,11.25
2018-05-18T05:22:10.783Z,11.25
2018-05-18T05:23:10.755Z,11.25
2018-05-18T05:24:10.867Z,11.25
2018-05-18T05:25:10.765Z,11.25
2018-05-18T05:26:10.827Z,11.25
2018-05-18T05:27:10.770Z,11.25
2018-05-18T05:28:12.419Z,11.25
2018-05-18T05:29:11.115Z,11.25
2018-05-18T05:30:12.391Z,11.25
2018-05-18T05:31:10.710Z,11.25
2018-05-18T05:32:12.379Z,11.25
2018-05-18T05:33:10.692Z,11.25
2018-05-18T05:34:10.819Z,11.25
2018-05-18T05:35:10.821Z,11.25
2018-05-18T05:36:10.673Z,11.25
2018-05-18T05:37:10.742Z,11.25
2018-05-18T05:38:10.824Z,11.25
2018-05-18T05:39:12.360Z,11.25
2018-05-18T05:40:10.845Z,11.25
2018-05-18T05:41:10.773Z,11.25
2018-05-18T05:42:12.387Z,11.25
2018-05-18T05:43:10.743Z,11.25
2018-05-18T05:44:10.740Z,11.25
2018-05-18T05:45:10.705Z,11.25
2018-05-18T05:46:10.966Z,11.25
2018-05-18T05:47:10.769Z,11.25
2018-05-18T05:48:10.659Z,11.25
2018-05-18T05:49:10.762Z,11.25
2018-05-18T05:50:10.771Z,11.25
2018-05-18T05:51:12.325Z,16.88
2018-05-18T05:52:10.692Z,11.25
2018-05-18T05:53:10.892Z,11.25
2018-05-18T05:54:10.819Z,11.25
2018-05-18T05:55:10.804Z,11.25
2018-05-18T05:56:10.736Z,11.25
2018-05-18T05:57:10.834Z,11.25
2018-05-18T05:58:10.880Z,11.25
2018-05-18T05:59:10.857Z,11.25
2018-05-18T06:00:10.731Z,16.88
2018-05-18T06:01:10.890Z,16.88
2018-05-18T06:02:12.479Z,16.88
2018-05-18T06:03:13.294Z,16.88
2018-05-18T06:04:12.473Z,16.88
2018-05-18T06:05:10.740Z,16.88
2018-05-18T06:06:10.907Z,16.88
2018-05-18T06:07:12.621Z,16.88
2018-05-18T06:08:10.743Z,16.88
2018-05-18T06:09:11.815Z,16.88
2018-05-18T06:10:10.863Z,16.88
2018-05-18T06:11:12.403Z,16.88
2018-05-18T06:12:10.950Z,16.88
2018-05-18T06:13:10.775Z,16.88
2018-05-18T06:14:12.522Z,16.88
2018-05-18T06:15:10.771Z,16.88
2018-05-18T06:16:12.543Z,16.88
2018-05-18T06:17:12.376Z,22.50
2018-05-18T06:18:12.448Z,22.50
2018-05-18T06:19:12.382Z,22.50
2018-05-18T06:20:12.936Z,22.50
2018-05-18T06:21:12.701Z,22.50
2018-05-18T06:22:16.852Z,22.50
2018-05-18T06:23:10.961Z,22.50
2018-05-18T06:24:13.393Z,22.50
2018-05-18T06:25:13.460Z,22.50
2018-05-18T06:26:12.519Z,22.50
2018-05-18T06:27:10.927Z,22.50
2018-05-18T06:28:12.486Z,22.50
2018-05-18T06:29:10.856Z,22.50
2018-05-18T06:30:10.793Z,22.50
2018-05-18T06:31:10.830Z,22.50
2018-05-18T06:32:27.788Z,22.50
2018-05-18T06:33:11.985Z,22.50
2018-05-18T06:34:11.921Z,22.50
2018-05-18T06:35:12.025Z,22.50
2018-05-18T06:36:21.915Z,22.50
2018-05-18T06:38:09.629Z,22.50
2018-05-18T06:40:38.359Z,22.50
2018-05-18T06:41:37.275Z,22.50
2018-05-18T06:42:37.173Z,22.50
2018-05-18T06:43:37.199Z,22.50
2018-05-18T06:44:37.307Z,22.50
2018-05-18T06:45:38.236Z,22.50
2018-05-18T06:47:05.445Z,22.50
2018-05-18T06:52:52.827Z,22.50
2018-05-18T06:53:39.759Z,22.50
2018-05-18T06:54:54.364Z,22.50
2018-05-18T06:56:46.207Z,28.13
2018-05-18T06:57:35.119Z,28.13
2018-05-18T06:58:59.878Z,28.13
2018-05-18T07:00:32.029Z,28.13
2018-05-18T07:01:31.122Z,28.13
2018-05-18T07:04:15.521Z,28.13
2018-05-18T07:05:37.834Z,28.13
2018-05-18T07:07:09.779Z,28.13
2018-05-18T07:08:18.393Z,28.13
2018-05-18T07:10:04.180Z,28.13
2018-05-18T07:11:04.164Z,28.13
2018-05-18T07:12:58.473Z,33.75
2018-05-18T07:13:58.433Z,33.75
2018-05-18T07:15:54.012Z,33.75
2018-05-18T07:16:54.459Z,33.75
2018-05-18T07:17:53.808Z,33.75
2018-05-18T07:18:53.793Z,33.75
2018-05-18T07:19:53.799Z,33.75
2018-05-18T07:20:53.816Z,33.75
2018-05-18T07:21:53.821Z,33.75
2018-05-18T07:22:53.782Z,33.75
2018-05-18T07:23:53.811Z,33.75
2018-05-18T07:24:53.880Z,33.75
2018-05-18T07:25:53.784Z,33.75
2018-05-18T07:26:53.872Z,39.38
2018-05-18T07:27:53.787Z,39.38
2018-05-18T07:28:54.510Z,39.38
2018-05-18T07:29:53.765Z,39.38
2018-05-18T07:30:53.753Z,39.38
2018-05-18T07:31:53.756Z,39.38
2018-05-18T07:32:53.752Z,39.38
2018-05-18T07:33:54.296Z,39.38
2018-05-18T07:36:35.673Z,39.38
2018-05-18T07:37:35.763Z,39.38
2018-05-18T07:39:30.037Z,39.38
2018-05-18T07:40:30.085Z,39.38
2018-05-18T07:42:24.577Z,39.38
2018-05-18T07:43:24.365Z,33.75
2018-05-18T07:45:18.764Z,33.75
2018-05-18T07:46:18.786Z,33.75
2018-05-18T07:47:18.787Z,33.75
2018-05-18T07:48:18.759Z,39.38
2018-05-18T07:49:18.724Z,39.38
2018-05-18T07:50:18.774Z,39.38
2018-05-18T07:51:18.780Z,39.38
2018-05-18T07:52:18.690Z,39.38
2018-05-18T07:53:18.693Z,39.38
2018-05-18T07:54:18.765Z,39.38
2018-05-18T07:55:18.690Z,39.38
2018-05-18T07:56:19.285Z,39.38
2018-05-18T07:57:18.695Z,39.38
2018-05-18T07:58:18.686Z,39.38
2018-05-18T07:59:18.684Z,39.38
2018-05-18T08:00:18.689Z,39.38
2018-05-18T08:01:18.685Z,39.38
2018-05-18T08:02:18.685Z,39.38
2018-05-18T08:03:18.684Z,39.38
2018-05-18T08:04:18.685Z,39.38
2018-05-18T08:05:18.681Z,39.38
2018-05-18T08:06:18.709Z,45.00
2018-05-18T08:07:18.681Z,45.00
2018-05-18T08:08:18.682Z,45.00
2018-05-18T08:09:18.684Z,45.00
2018-05-18T08:10:18.700Z,45.00
2018-05-18T08:11:18.676Z,45.00
2018-05-18T08:12:18.674Z,45.00
2018-05-18T08:13:18.675Z,45.00
2018-05-18T08:14:18.677Z,45.00
2018-05-18T08:15:18.675Z,45.00
2018-05-18T08:16:18.676Z,45.00
2018-05-18T08:17:18.675Z,45.00
2018-05-18T08:18:18.677Z,45.00
2018-05-18T08:19:18.677Z,45.00
2018-05-18T08:20:18.677Z,45.00
2018-05-18T08:21:18.671Z,45.00
2018-05-18T08:22:18.674Z,45.00
2018-05-18T08:23:18.705Z,45.00
2018-05-18T08:24:18.676Z,45.00
2018-05-18T08:25:18.678Z,45.00
2018-05-18T08:26:18.669Z,45.00
2018-05-18T08:27:18.716Z,50.63
2018-05-18T08:28:18.857Z,50.63
2018-05-18T08:29:18.670Z,50.63
2018-05-18T08:30:18.668Z,50.63
2018-05-18T08:31:18.669Z,50.63
2018-05-18T08:32:18.684Z,50.63
2018-05-18T08:33:18.686Z,56.25
2018-05-18T08:34:18.666Z,56.25
2018-05-18T08:35:18.665Z,56.25
2018-05-18T08:36:18.669Z,56.25
2018-05-18T08:37:18.702Z,56.25
2018-05-18T08:38:18.670Z,56.25
2018-05-18T08:39:18.667Z,56.25
2018-05-18T08:40:18.667Z,61.88
2018-05-18T08:41:18.672Z,61.88
2018-05-18T08:42:18.664Z,61.88
2018-05-18T08:43:18.666Z,61.88
2018-05-18T08:44:18.727Z,61.88
2018-05-18T08:45:18.666Z,61.88
2018-05-18T08:46:18.666Z,61.88
2018-05-18T08:47:18.662Z,67.50
2018-05-18T08:48:18.712Z,67.50
2018-05-18T08:49:18.686Z,67.50
2018-05-18T08:50:18.684Z,73.13
2018-05-18T08:51:18.664Z,73.13
2018-05-18T08:52:18.700Z,73.13
2018-05-18T08:53:18.688Z,73.13
2018-05-18T08:54:18.663Z,73.13
2018-05-18T08:55:18.663Z,73.13
2018-05-18T08:56:18.662Z,73.13
2018-05-18T08:57:18.663Z,73.13
2018-05-18T08:58:18.659Z,73.13
2018-05-18T08:59:18.665Z,73.13
2018-05-18T09:00:18.664Z,73.13
2018-05-18T09:01:18.660Z,78.75
2018-05-18T09:02:18.677Z,78.75
2018-05-18T09:03:18.695Z,84.38
2018-05-18T09:04:18.660Z,84.38
2018-05-18T09:05:18.679Z,90.00
2018-05-18T09:06:18.669Z,95.63
2018-05-18T09:07:18.706Z,95.63
2018-05-18T09:08:18.667Z,106.88
2018-05-18T09:09:18.666Z,101.25
2018-05-18T09:10:18.667Z,101.25
2018-05-18T09:11:18.665Z,101.25
2018-05-18T09:12:18.662Z,106.88
2018-05-18T09:13:18.663Z,112.50
2018-05-18T09:14:18.692Z,118.13
2018-05-18T09:15:18.663Z,123.75
2018-05-18T09:16:18.661Z,129.38
2018-05-18T09:17:18.666Z,135.00
2018-05-18T09:18:18.687Z,140.63
2018-05-18T09:19:18.668Z,140.63
2018-05-18T09:20:18.668Z,140.63
2018-05-18T09:21:18.670Z,140.63
2018-05-18T09:22:18.669Z,135.00
2018-05-18T09:23:18.668Z,135.00
2018-05-18T09:24:18.673Z,135.00
2018-05-18T09:25:18.667Z,129.38
2018-05-18T09:26:18.700Z,123.75
2018-05-18T09:27:18.674Z,118.13
2018-05-18T09:28:18.670Z,112.50
2018-05-18T09:29:18.674Z,112.50
2018-05-18T09:30:18.680Z,112.50
2018-05-18T09:31:18.708Z,118.13
2018-05-18T09:32:18.679Z,118.13
2018-05-18T09:35:42.900Z,106.88
2018-05-18T09:38:23.815Z,101.25
2018-05-18T09:39:34.371Z,101.25
2018-05-18T09:41:19.630Z,101.25
2018-05-18T09:42:19.572Z,101.25
2018-05-18T09:43:19.512Z,101.25
2018-05-18T09:44:19.664Z,101.25
2018-05-18T09:45:19.539Z,101.25
2018-05-18T09:46:19.525Z,101.25
2018-05-18T09:47:19.512Z,101.25
2018-05-18T09:48:19.693Z,101.25
2018-05-18T09:49:19.651Z,101.25
2018-05-18T09:50:19.564Z,106.88
2018-05-18T09:51:19.528Z,106.88
2018-05-18T09:52:19.541Z,106.88
2018-05-18T09:53:19.525Z,106.88
2018-05-18T09:54:19.683Z,106.88
2018-05-18T09:55:19.603Z,106.88
2018-05-18T09:56:19.525Z,106.88
2018-05-18T09:57:19.529Z,112.50
2018-05-18T09:58:19.570Z,112.50
2018-05-18T09:59:19.541Z,118.13
2018-05-18T10:00:19.564Z,118.13
2018-05-18T10:01:19.537Z,123.75
2018-05-18T10:02:19.537Z,129.38
2018-05-18T10:03:19.536Z,123.75
2018-05-18T10:04:19.560Z,129.38
2018-05-18T10:05:19.599Z,129.38
2018-05-18T10:06:21.083Z,129.38
2018-05-18T10:07:19.549Z,129.38
2018-05-18T10:08:19.546Z,129.38
2018-05-18T10:09:19.549Z,129.38
2018-05-18T10:10:19.546Z,129.38
2018-05-18T10:11:19.630Z,129.38
2018-05-18T10:12:19.598Z,135.00
2018-05-18T10:13:19.575Z,146.25
2018-05-18T10:14:19.555Z,151.88
2018-05-18T10:15:19.557Z,157.50
2018-05-18T10:16:19.562Z,168.75
2018-05-18T10:17:19.561Z,180.00
2018-05-18T10:18:19.565Z,196.88
2018-05-18T10:19:19.560Z,185.63
2018-05-18T10:20:19.565Z,174.38
2018-05-18T10:21:19.566Z,168.75
2018-05-18T10:22:19.575Z,174.38
2018-05-18T10:23:19.600Z,185.63
2018-05-18T10:24:19.576Z,196.88
2018-05-18T10:25:19.579Z,174.38
2018-05-18T10:26:19.579Z,168.75
2018-05-18T10:27:19.584Z,168.75
2018-05-18T10:28:19.587Z,174.38
2018-05-18T10:29:19.592Z,174.38
2018-05-18T10:30:19.594Z,168.75
2018-05-18T10:31:19.593Z,163.13
2018-05-18T10:32:19.623Z,163.13
2018-05-18T10:33:19.600Z,157.50
2018-05-18T10:34:19.602Z,163.13
2018-05-18T10:35:19.603Z,157.50
2018-05-18T10:36:19.605Z,157.50
2018-05-18T10:37:19.611Z,151.88
2018-05-18T10:38:19.638Z,151.88
2018-05-18T10:39:19.673Z,157.50
2018-05-18T10:40:19.649Z,157.50
2018-05-18T10:41:19.632Z,163.13
2018-05-18T10:42:19.627Z,163.13
2018-05-18T10:43:19.625Z,174.38
2018-05-18T10:44:19.681Z,174.38
2018-05-18T10:45:19.767Z,180.00
2018-05-18T10:46:19.787Z,180.00
2018-05-18T10:47:19.757Z,185.63
2018-05-18T10:48:19.706Z,180.00
2018-05-18T10:49:19.657Z,180.00
2018-05-18T10:50:19.648Z,185.63
2018-05-18T10:51:19.645Z,196.88
2018-05-18T10:52:19.654Z,219.38
2018-05-18T10:53:19.652Z,219.38
2018-05-18T10:54:19.655Z,225.00
2018-05-18T10:55:19.698Z,253.13
2018-05-18T10:56:19.662Z,213.75
2018-05-18T10:57:19.673Z,208.13
2018-05-18T10:58:19.715Z,202.50
2018-05-18T10:59:19.722Z,191.25
2018-05-18T11:00:19.677Z,191.25
2018-05-18T11:01:19.680Z,191.25
2018-05-18T11:02:19.683Z,196.88
2018-05-18T11:03:19.684Z,202.50
2018-05-18T11:04:19.690Z,196.88
2018-05-18T11:05:19.718Z,286.88
2018-05-18T11:06:19.720Z,202.50
2018-05-18T11:07:19.711Z,202.50
2018-05-18T11:08:19.707Z,196.88
2018-05-18T11:09:19.750Z,196.88
2018-05-18T11:10:19.715Z,196.88
2018-05-18T11:11:19.718Z,202.50
2018-05-18T11:12:19.719Z,208.13
2018-05-18T11:13:19.723Z,202.50
2018-05-18T11:14:19.763Z,202.50
2018-05-18T11:15:19.732Z,202.50
2018-05-18T11:16:19.753Z,191.25
2018-05-18T11:17:19.740Z,180.00
2018-05-18T11:18:19.743Z,168.75
2018-05-18T11:19:19.749Z,202.50
2018-05-18T11:20:19.755Z,196.88
2018-05-18T11:21:19.753Z,258.75
2018-05-18T11:22:19.760Z,202.50
2018-05-18T11:23:19.846Z,241.88
2018-05-18T11:24:19.765Z,196.88
2018-05-18T11:25:19.768Z,168.75
2018-05-18T11:26:19.871Z,213.75
2018-05-18T11:27:19.779Z,202.50
2018-05-18T11:28:19.780Z,174.38
2018-05-18T11:29:19.786Z,185.63
2018-05-18T11:30:19.966Z,180.00
2018-05-18T11:31:19.808Z,174.38
2018-05-18T11:32:19.803Z,174.38
2018-05-18T11:33:19.808Z,168.75
2018-05-18T11:34:19.809Z,168.75
2018-05-18T11:35:19.811Z,168.75
2018-05-18T11:36:19.822Z,202.50
2018-05-18T11:37:19.831Z,157.50
2018-05-18T11:38:19.823Z,151.88
2018-05-18T11:39:19.829Z,157.50
2018-05-18T11:40:19.841Z,157.50
2018-05-18T11:41:19.902Z,196.88
2018-05-18T11:42:19.852Z,219.38
2018-05-18T11:43:19.848Z,213.75
2018-05-18T11:44:19.849Z,196.88
2018-05-18T11:45:19.856Z,196.88
2018-05-18T11:46:19.868Z,157.50
2018-05-18T11:47:19.891Z,140.63
2018-05-18T11:48:19.879Z,129.38
2018-05-18T11:49:19.874Z,118.13
2018-05-18T11:50:19.881Z,123.75
2018-05-18T11:51:19.881Z,129.38
2018-05-18T11:52:19.885Z,129.38
2018-05-18T11:53:19.893Z,135.00
2018-05-18T11:54:19.893Z,129.38
2018-05-18T11:55:19.897Z,129.38
2018-05-18T11:56:19.900Z,123.75
2018-05-18T11:57:19.907Z,123.75
2018-05-18T11:58:19.913Z,123.75
2018-05-18T11:59:19.915Z,129.38
2018-05-18T12:00:19.920Z,140.63
2018-05-18T12:01:19.935Z,208.13
2018-05-18T12:02:19.974Z,202.50
2018-05-18T12:03:19.933Z,202.50
2018-05-18T12:04:19.935Z,196.88
2018-05-18T12:05:19.979Z,196.88
2018-05-18T12:06:19.942Z,196.88
2018-05-18T12:07:19.952Z,191.25
2018-05-18T12:08:19.984Z,185.63
2018-05-18T12:09:19.956Z,185.63
2018-05-18T12:10:19.956Z,185.63
2018-05-18T12:11:19.959Z,185.63
2018-05-18T12:12:19.973Z,191.25
2018-05-18T12:13:20.052Z,191.25
2018-05-18T12:14:19.972Z,196.88
2018-05-18T12:15:19.995Z,191.25
2018-05-18T12:16:19.988Z,185.63
2018-05-18T12:17:20.012Z,185.63
2018-05-18T12:18:21.600Z,151.88
2018-05-18T12:19:20.000Z,151.88
2018-05-18T12:20:21.627Z,168.75
2018-05-18T12:21:20.002Z,185.63
2018-05-18T12:22:20.012Z,208.13
2018-05-18T12:23:20.014Z,219.38
2018-05-18T12:24:20.015Z,219.38
2018-05-18T12:25:20.065Z,213.75
2018-05-18T12:26:20.022Z,219.38
2018-05-18T12:27:20.028Z,208.13
2018-05-18T12:28:20.093Z,174.38
2018-05-18T12:29:20.062Z,185.63
2018-05-18T12:30:20.039Z,168.75
2018-05-18T12:31:20.046Z,196.88
2018-05-18T12:32:20.054Z,185.63
2018-05-18T12:33:20.058Z,196.88
2018-05-18T12:34:20.062Z,191.25
2018-05-18T12:35:20.064Z,196.88
2018-05-18T12:36:20.093Z,202.50
2018-05-18T12:37:20.076Z,208.13
2018-05-18T12:38:20.082Z,208.13
2018-05-18T12:39:20.083Z,208.13
2018-05-18T12:40:28.750Z,163.13
2018-05-18T12:42:16.476Z,157.50
2018-05-18T12:43:15.851Z,146.25
2018-05-18T12:45:10.231Z,191.25
2018-05-18T12:46:10.472Z,191.25
2018-05-18T12:48:04.571Z,202.50
2018-05-18T12:49:04.574Z,191.25
2018-05-18T12:50:59.025Z,185.63
2018-05-18T12:51:58.954Z,185.63
2018-05-18T12:53:53.591Z,140.63
2018-05-18T12:54:53.517Z,146.25
2018-05-18T12:56:48.025Z,191.25
2018-05-18T12:57:47.989Z,185.63
2018-05-18T12:59:42.731Z,140.63
2018-05-18T13:00:42.702Z,146.25
2018-05-18T13:02:37.390Z,191.25
2018-05-18T13:03:37.382Z,174.38
2018-05-18T13:05:31.865Z,140.63
2018-05-18T13:06:31.753Z,140.63
2018-05-18T13:08:26.610Z,129.38
2018-05-18T13:09:27.080Z,123.75
2018-05-18T13:11:20.680Z,129.38
2018-05-18T13:12:20.694Z,135.00
2018-05-18T13:13:20.712Z,174.38
2018-05-18T13:14:20.545Z,168.75
2018-05-18T13:15:20.698Z,157.50
2018-05-18T13:16:22.069Z,135.00
2018-05-18T13:17:20.535Z,140.63
2018-05-18T13:18:20.550Z,112.50
2018-05-18T13:19:20.545Z,123.75
2018-05-18T13:20:20.548Z,140.63
2018-05-18T13:21:20.574Z,140.63
2018-05-18T13:22:20.587Z,135.00
2018-05-18T13:23:20.576Z,106.88
2018-05-18T13:24:20.564Z,112.50
2018-05-18T13:25:20.574Z,106.88
2018-05-18T13:26:20.608Z,129.38
2018-05-18T13:27:20.585Z,101.25
2018-05-18T13:28:20.586Z,118.13
2018-05-18T13:29:20.588Z,135.00
2018-05-18T13:30:20.618Z,140.63
2018-05-18T13:31:20.607Z,140.63
2018-05-18T13:32:22.577Z,140.63